createdAt,value
2022-12-23T00:01:05.215Z,41.72
2022-12-23T00:04:08.862Z,38.38
2022-12-23T00:07:11.349Z,39.40
2022-12-23T00:10:14.010Z,40.03
2022-12-23T00:13:35.691Z,40.78
2022-12-23T00:16:38.711Z,39.78
2022-12-23T00:19:41.246Z,39.03
2022-12-23T00:23:02.688Z,44.83
2022-12-23T00:26:06.211Z,39.33
2022-12-23T00:29:09.509Z,41.00
2022-12-23T00:32:12.072Z,39.37
2022-12-23T00:35:14.552Z,37.77
2022-12-23T00:38:38.173Z,39.03
2022-12-23T00:41:59.568Z,40.35
2022-12-23T00:45:15.874Z,37.75
2022-12-23T00:48:36.817Z,38.23
2022-12-23T00:51:39.360Z,42.22
2022-12-23T00:54:42.083Z,41.28
2022-12-23T00:57:44.591Z,38.93
2022-12-23T01:01:06.397Z,38.73
2022-12-23T01:04:31.828Z,35.38
2022-12-23T01:07:34.305Z,37.05
2022-12-23T01:10:48.256Z,37.25
2022-12-23T01:13:50.856Z,35.87
2022-12-23T01:16:53.404Z,38.03
2022-12-23T01:19:56.034Z,36.85
2022-12-23T01:22:59.563Z,36.53
2022-12-23T01:26:07.004Z,37.03
2022-12-23T01:29:09.505Z,36.15
2022-12-23T01:32:11.997Z,34.40
2022-12-23T01:35:14.578Z,33.87
2022-12-23T01:38:17.901Z,34.53
2022-12-23T01:41:42.177Z,36.00
2022-12-23T01:44:57.965Z,31.30
2022-12-23T01:48:38.881Z,34.37
2022-12-23T01:51:41.828Z,34.40
2022-12-23T01:54:45.360Z,36.72
2022-12-23T01:57:48.579Z,33.42
2022-12-23T02:01:10.902Z,33.13
2022-12-23T02:04:17.584Z,31.87
2022-12-23T02:07:39.702Z,31.70
2022-12-23T02:11:06.296Z,31.40
2022-12-23T02:15:04.650Z,31.27
2022-12-23T02:18:33.695Z,31.83
2022-12-23T02:22:05.012Z,31.23
2022-12-23T02:25:27.911Z,34.42
2022-12-23T02:28:51.455Z,30.42
2022-12-23T02:32:08.907Z,32.07
2022-12-23T02:35:18.238Z,32.28
2022-12-23T02:38:38.067Z,32.53
2022-12-23T02:41:48.182Z,31.10
2022-12-23T02:45:14.503Z,31.40
2022-12-23T02:48:28.981Z,31.60
2022-12-23T02:51:36.740Z,33.67
2022-12-23T02:54:45.434Z,34.55
2022-12-23T02:57:51.174Z,32.70
2022-12-23T03:00:55.611Z,32.38
2022-12-23T03:03:58.288Z,33.90
2022-12-23T03:07:07.447Z,33.37
2022-12-23T03:10:23.970Z,34.40
2022-12-23T03:13:57.219Z,31.20
2022-12-23T03:17:31.202Z,33.53
2022-12-23T03:20:56.810Z,35.73
2022-12-23T03:24:02.174Z,37.90
2022-12-23T03:27:36.302Z,38.17
2022-12-23T03:30:43.136Z,37.33
2022-12-23T03:33:52.010Z,38.33
2022-12-23T03:36:58.986Z,37.65
2022-12-23T03:40:10.694Z,37.72
2022-12-23T03:43:37.104Z,36.30
2022-12-23T03:46:46.688Z,37.83
2022-12-23T03:50:03.159Z,40.55
2022-12-23T03:53:12.940Z,38.60
2022-12-23T03:56:21.812Z,38.90
2022-12-23T03:59:31.799Z,35.60
2022-12-23T04:02:46.366Z,38.65
2022-12-23T04:05:55.802Z,36.78
2022-12-23T04:08:59.113Z,39.03
2022-12-23T04:12:01.722Z,37.20
2022-12-23T04:15:09.110Z,43.70
2022-12-23T04:18:16.426Z,41.63
2022-12-23T04:21:19.233Z,41.40
2022-12-23T04:24:21.782Z,40.03
2022-12-23T04:27:24.186Z,40.00
2022-12-23T04:30:33.961Z,44.10
2022-12-23T04:33:37.040Z,36.43
2022-12-23T04:36:39.572Z,40.80
2022-12-23T04:39:42.121Z,44.63
2022-12-23T04:42:44.610Z,45.95
2022-12-23T04:45:51.388Z,43.67
2022-12-23T04:48:53.854Z,43.73
2022-12-23T04:51:56.352Z,40.45
2022-12-23T04:54:58.804Z,44.38
2022-12-23T04:58:01.288Z,39.73
2022-12-23T05:01:10.071Z,42.55
2022-12-23T05:04:12.776Z,43.53
2022-12-23T05:07:15.300Z,43.10
2022-12-23T05:10:17.879Z,40.00
2022-12-23T05:13:20.632Z,41.30
2022-12-23T05:16:24.084Z,42.85
2022-12-23T05:19:26.859Z,41.28
2022-12-23T05:22:29.357Z,39.83
2022-12-23T05:25:36.659Z,43.35
2022-12-23T05:28:39.158Z,42.10
2022-12-23T05:31:41.949Z,41.27
2022-12-23T05:34:44.426Z,39.97
2022-12-23T05:37:46.890Z,42.53
2022-12-23T05:40:51.582Z,41.55
2022-12-23T05:43:54.151Z,42.20
2022-12-23T05:46:56.541Z,41.50
2022-12-23T05:49:59.025Z,37.65
2022-12-23T05:53:01.543Z,39.78
2022-12-23T05:56:05.660Z,41.57
2022-12-23T05:59:08.229Z,40.75
2022-12-23T06:02:11.180Z,36.72
2022-12-23T06:05:14.147Z,38.00
2022-12-23T06:08:16.754Z,36.08
2022-12-23T06:11:19.423Z,35.83
2022-12-23T06:14:28.325Z,37.92
2022-12-23T06:17:31.371Z,33.57
2022-12-23T06:20:34.987Z,37.40
2022-12-23T06:23:37.565Z,37.00
2022-12-23T06:26:40.049Z,36.43
2022-12-23T06:29:42.699Z,35.07
2022-12-23T06:32:45.356Z,37.65
2022-12-23T06:35:47.852Z,34.72
2022-12-23T06:38:50.295Z,36.93
2022-12-23T06:41:52.863Z,33.90
2022-12-23T06:44:55.358Z,32.20
2022-12-23T06:47:57.761Z,30.98
2022-12-23T06:51:02.364Z,29.67
2022-12-23T06:54:04.932Z,30.73
2022-12-23T06:57:07.454Z,29.52
2022-12-23T07:00:10.718Z,29.03
2022-12-23T07:03:13.414Z,29.98
2022-12-23T07:06:16.446Z,30.15
2022-12-23T07:09:19.065Z,31.23
2022-12-23T07:12:21.612Z,30.63
2022-12-23T07:15:24.199Z,29.73
2022-12-23T07:18:26.825Z,27.67
2022-12-23T07:21:30.151Z,29.53
2022-12-23T07:24:33.020Z,28.73
2022-12-23T07:27:35.491Z,30.70
2022-12-23T07:30:41.818Z,29.20
2022-12-23T07:33:44.662Z,28.60
2022-12-23T07:36:47.084Z,27.52
2022-12-23T07:39:49.800Z,29.08
2022-12-23T07:42:59.056Z,29.38
2022-12-23T07:46:09.509Z,28.70
2022-12-23T07:49:12.131Z,26.75
2022-12-23T07:52:14.969Z,25.05
2022-12-23T07:55:17.752Z,26.97
2022-12-23T07:58:20.186Z,27.80
2022-12-23T08:01:22.978Z,26.23
2022-12-23T08:04:25.458Z,25.45
2022-12-23T08:07:28.063Z,22.60
2022-12-23T08:10:30.781Z,26.73
2022-12-23T08:13:35.298Z,23.30
2022-12-23T08:16:43.351Z,28.00
2022-12-23T08:19:46.791Z,26.13
2022-12-23T08:22:49.441Z,26.47
2022-12-23T08:26:11.144Z,24.70
2022-12-23T08:29:13.556Z,23.83
2022-12-23T08:32:16.183Z,21.40
2022-12-23T08:35:18.599Z,25.33
2022-12-23T08:38:21.101Z,24.50
2022-12-23T08:41:28.162Z,24.75
2022-12-23T08:44:32.698Z,25.27
2022-12-23T08:47:35.151Z,22.45
2022-12-23T08:50:39.351Z,23.20
2022-12-23T08:53:41.955Z,24.20
2022-12-23T08:56:44.957Z,22.08
2022-12-23T08:59:47.757Z,25.92
2022-12-23T09:02:50.474Z,25.23
2022-12-23T09:05:52.954Z,23.85
2022-12-23T09:08:56.069Z,24.92
2022-12-23T09:11:58.551Z,23.85
2022-12-23T09:15:01.029Z,20.97
2022-12-23T09:18:03.539Z,25.17
2022-12-23T09:21:09.041Z,25.35
2022-12-23T09:24:11.656Z,24.70
2022-12-23T09:27:14.075Z,22.53
2022-12-23T09:30:16.993Z,22.25
2022-12-23T09:33:19.912Z,23.65
2022-12-23T09:36:23.059Z,23.90
2022-12-23T09:39:25.804Z,24.38
2022-12-23T09:42:48.074Z,26.02
2022-12-23T09:46:09.611Z,24.80
2022-12-23T09:49:15.387Z,23.77
2022-12-23T09:52:27.364Z,24.35
2022-12-23T09:55:57.480Z,25.00
2022-12-23T09:59:13.543Z,26.70
2022-12-23T10:02:28.814Z,29.80
2022-12-23T10:05:50.261Z,29.45
2022-12-23T10:08:58.531Z,28.20
2022-12-23T10:12:22.330Z,30.53
2022-12-23T10:15:48.101Z,28.88
2022-12-23T10:19:08.927Z,25.20
2022-12-23T10:22:25.138Z,25.60
2022-12-23T10:25:37.604Z,26.03
2022-12-23T10:28:40.007Z,24.88
2022-12-23T10:31:56.756Z,22.27
2022-12-23T10:35:15.831Z,25.17
2022-12-23T10:38:42.958Z,23.63
2022-12-23T10:42:27.913Z,23.02
2022-12-23T10:46:01.440Z,22.02
2022-12-23T10:49:12.540Z,21.90
2022-12-23T10:52:23.542Z,24.95
2022-12-23T10:55:33.865Z,23.70
2022-12-23T10:58:43.831Z,20.23
2022-12-23T11:01:52.780Z,23.93
2022-12-23T11:04:55.373Z,26.45
2022-12-23T11:07:58.726Z,25.33
2022-12-23T11:11:02.312Z,27.17
2022-12-23T11:14:04.865Z,25.42
2022-12-23T11:17:34.507Z,27.20
2022-12-23T11:20:44.975Z,25.85
2022-12-23T11:23:47.525Z,28.10
2022-12-23T11:27:04.471Z,24.47
2022-12-23T11:30:20.052Z,26.65
2022-12-23T11:33:34.293Z,23.48
2022-12-23T11:36:36.745Z,23.40
2022-12-23T11:39:39.674Z,24.77
2022-12-23T11:42:42.786Z,24.92
2022-12-23T11:45:45.347Z,25.10
2022-12-23T11:48:54.436Z,25.73
2022-12-23T11:52:06.147Z,22.23
2022-12-23T11:55:24.262Z,26.20
2022-12-23T11:58:29.608Z,27.60
2022-12-23T12:01:32.795Z,26.57
2022-12-23T12:04:36.307Z,25.17
2022-12-23T12:07:43.419Z,25.48
2022-12-23T12:10:46.187Z,26.65
2022-12-23T12:13:52.355Z,26.07
2022-12-23T12:17:05.991Z,26.17
2022-12-23T12:20:19.216Z,24.00
2022-12-23T12:23:28.590Z,24.75
2022-12-23T12:26:34.707Z,23.77
2022-12-23T12:30:01.081Z,25.17
2022-12-23T12:33:33.908Z,26.80
2022-12-23T12:37:25.540Z,26.27
2022-12-23T12:40:40.980Z,24.83
2022-12-23T12:44:00.544Z,26.00
2022-12-23T12:47:54.424Z,27.00
2022-12-23T12:51:36.336Z,29.60
2022-12-23T12:55:13.597Z,27.40
2022-12-23T12:58:20.283Z,27.13
2022-12-23T13:01:31.052Z,27.70
2022-12-23T13:04:42.541Z,26.50
2022-12-23T13:08:22.587Z,24.87
2022-12-23T13:12:06.491Z,26.92
2022-12-23T13:15:11.565Z,26.83
2022-12-23T13:18:58.330Z,27.03
2022-12-23T13:22:06.954Z,26.30
2022-12-23T13:25:20.019Z,24.25
2022-12-23T13:28:44.556Z,27.40
2022-12-23T13:32:22.854Z,23.70
2022-12-23T13:35:43.612Z,23.90
2022-12-23T13:38:59.792Z,22.38
2022-12-23T13:42:06.123Z,22.73
2022-12-23T13:45:15.449Z,21.92
2022-12-23T13:48:39.450Z,21.27
2022-12-23T13:52:20.953Z,21.58
2022-12-23T13:55:35.423Z,20.75
2022-12-23T13:58:40.342Z,19.38
2022-12-23T14:01:46.907Z,19.07
2022-12-23T14:04:55.497Z,21.08
2022-12-23T14:08:00.252Z,20.00
2022-12-23T14:11:12.699Z,17.73
2022-12-23T14:14:22.525Z,21.57
2022-12-23T14:17:39.320Z,20.80
2022-12-23T14:21:19.234Z,18.70
2022-12-23T14:24:43.201Z,21.40
2022-12-23T14:27:56.687Z,20.23
2022-12-23T14:31:05.433Z,21.10
2022-12-23T14:34:28.929Z,19.60
2022-12-23T14:37:33.708Z,18.50
2022-12-23T14:40:38.041Z,19.83
2022-12-23T14:43:46.206Z,18.87
2022-12-23T14:46:48.861Z,20.10
2022-12-23T14:49:51.787Z,20.70
2022-12-23T14:53:22.983Z,21.20
2022-12-23T14:56:40.796Z,20.67
2022-12-23T15:00:04.389Z,22.27
2022-12-23T15:03:11.523Z,23.65
2022-12-23T15:06:19.287Z,24.35
2022-12-23T15:09:27.925Z,24.23
2022-12-23T15:12:33.757Z,24.53
2022-12-23T15:15:36.513Z,27.70
2022-12-23T15:18:52.486Z,25.42
2022-12-23T15:22:20.708Z,26.15
2022-12-23T15:25:35.617Z,27.57
2022-12-23T15:28:41.232Z,28.05
2022-12-23T15:31:56.701Z,27.90
2022-12-23T15:35:06.729Z,29.70
2022-12-23T15:38:15.617Z,31.27
2022-12-23T15:41:18.827Z,30.67
2022-12-23T15:44:23.910Z,28.80
2022-12-23T15:47:32.213Z,26.23
2022-12-23T15:50:42.094Z,27.07
2022-12-23T15:53:47.595Z,31.17
2022-12-23T15:56:53.508Z,39.30
2022-12-23T15:59:58.670Z,36.05
2022-12-23T16:03:03.375Z,33.20
2022-12-23T16:06:33.071Z,33.07
2022-12-23T16:09:40.302Z,32.33
2022-12-23T16:12:43.886Z,36.50
2022-12-23T16:15:47.035Z,33.85
2022-12-23T16:18:49.599Z,30.98
2022-12-23T16:21:52.148Z,33.33
2022-12-23T16:25:17.133Z,35.17
2022-12-23T16:28:24.352Z,34.95
2022-12-23T16:31:27.321Z,34.25
2022-12-23T16:34:31.130Z,33.10
2022-12-23T16:37:33.544Z,37.42
2022-12-23T16:40:36.777Z,34.28
2022-12-23T16:43:44.548Z,31.13
2022-12-23T16:46:52.267Z,32.27
2022-12-23T16:49:54.796Z,30.08
2022-12-23T16:52:57.243Z,34.72
2022-12-23T16:56:01.023Z,40.22
2022-12-23T16:59:04.501Z,36.90
2022-12-23T17:02:20.738Z,36.97
2022-12-23T17:05:24.147Z,34.00
2022-12-23T17:08:26.591Z,33.28
2022-12-23T17:11:36.070Z,32.37
2022-12-23T17:14:38.878Z,35.63
2022-12-23T17:17:41.448Z,33.13
2022-12-23T17:20:47.746Z,32.10
2022-12-23T17:23:57.488Z,31.70
2022-12-23T17:26:59.970Z,32.40
2022-12-23T17:30:02.653Z,28.92
2022-12-23T17:33:05.704Z,26.05
2022-12-23T17:36:11.113Z,24.63
2022-12-23T17:39:13.769Z,27.53
2022-12-23T17:42:24.916Z,28.65
2022-12-23T17:45:31.105Z,25.80
2022-12-23T17:48:33.603Z,25.17
2022-12-23T17:51:36.281Z,25.60
2022-12-23T17:54:39.783Z,27.38
2022-12-23T17:57:42.231Z,30.27
2022-12-23T18:00:47.653Z,27.92
2022-12-23T18:03:50.999Z,26.60
2022-12-23T18:06:53.532Z,25.50
2022-12-23T18:09:55.972Z,27.20
2022-12-23T18:13:01.693Z,33.72
2022-12-23T18:16:04.240Z,31.75
2022-12-23T18:19:15.327Z,28.20
2022-12-23T18:22:20.429Z,34.33
2022-12-23T18:25:25.561Z,37.22
2022-12-23T18:28:28.105Z,36.22
2022-12-23T18:31:31.111Z,30.70
2022-12-23T18:34:33.774Z,33.57
2022-12-23T18:37:36.229Z,29.85
2022-12-23T18:40:40.176Z,32.28
2022-12-23T18:43:42.806Z,26.48
2022-12-23T18:46:45.448Z,34.33
2022-12-23T18:49:48.033Z,36.28
2022-12-23T18:52:50.761Z,32.35
2022-12-23T18:55:54.375Z,27.13
2022-12-23T18:58:56.915Z,28.33
2022-12-23T19:02:00.160Z,28.97
2022-12-23T19:05:02.748Z,29.80
2022-12-23T19:08:05.323Z,26.27
2022-12-23T19:11:20.526Z,22.98
2022-12-23T19:14:23.429Z,27.33
2022-12-23T19:17:25.924Z,25.65
2022-12-23T19:20:28.523Z,26.77
2022-12-23T19:23:31.128Z,23.10
2022-12-23T19:26:33.688Z,24.67
2022-12-23T19:29:36.243Z,26.05
2022-12-23T19:32:38.648Z,28.73
2022-12-23T19:35:42.243Z,24.37
2022-12-23T19:38:45.460Z,26.07
2022-12-23T19:41:48.103Z,24.42
2022-12-23T19:44:50.544Z,25.83
2022-12-23T19:47:53.535Z,24.47
2022-12-23T19:51:01.268Z,25.83
2022-12-23T19:54:03.824Z,23.90
2022-12-23T19:57:06.357Z,34.25
2022-12-23T20:00:09.554Z,35.23
2022-12-23T20:03:15.018Z,36.00
2022-12-23T20:06:23.538Z,33.72
2022-12-23T20:09:26.029Z,33.42
2022-12-23T20:12:28.570Z,31.67
2022-12-23T20:15:31.209Z,30.10
2022-12-23T20:18:33.872Z,30.88
2022-12-23T20:21:37.528Z,30.52
2022-12-23T20:24:40.152Z,27.73
2022-12-23T20:27:42.723Z,29.10
2022-12-23T20:30:48.250Z,33.92
2022-12-23T20:33:51.977Z,32.22
2022-12-23T20:36:54.395Z,32.88
2022-12-23T20:39:56.951Z,32.10
2022-12-23T20:42:59.566Z,30.15
2022-12-23T20:46:02.957Z,32.80
2022-12-23T20:49:05.553Z,31.73
2022-12-23T20:52:08.231Z,34.47
2022-12-23T20:55:10.644Z,37.28
2022-12-23T20:58:32.079Z,32.97
2022-12-23T21:01:38.175Z,33.17
2022-12-23T21:04:40.873Z,31.97
2022-12-23T21:07:43.321Z,27.40
2022-12-23T21:10:53.547Z,29.98
2022-12-23T21:14:01.138Z,28.80
2022-12-23T21:17:06.634Z,29.30
2022-12-23T21:20:09.367Z,30.75
2022-12-23T21:23:13.615Z,30.77
2022-12-23T21:26:19.225Z,30.70
2022-12-23T21:29:22.016Z,31.57
2022-12-23T21:32:24.597Z,25.95
2022-12-23T21:35:27.106Z,28.25
2022-12-23T21:38:38.441Z,26.35
2022-12-23T21:41:42.401Z,26.57
2022-12-23T21:44:44.942Z,28.95
2022-12-23T21:47:47.334Z,25.55
2022-12-23T21:50:54.813Z,22.65
2022-12-23T21:53:58.991Z,22.70
2022-12-23T21:57:01.423Z,22.87
2022-12-23T22:00:04.454Z,23.08
2022-12-23T22:03:07.102Z,21.85
2022-12-23T22:06:19.296Z,21.57
2022-12-23T22:09:21.726Z,24.03
2022-12-23T22:12:24.200Z,21.85
2022-12-23T22:15:26.655Z,26.80
2022-12-23T22:18:29.533Z,27.25
2022-12-23T22:21:32.639Z,25.67
2022-12-23T22:24:35.131Z,27.33
2022-12-23T22:27:37.585Z,28.42
2022-12-23T22:30:40.248Z,28.58
2022-12-23T22:33:42.739Z,28.57
2022-12-23T22:36:45.747Z,27.70
2022-12-23T22:39:48.605Z,26.17
2022-12-23T22:42:51.038Z,29.58
2022-12-23T22:46:01.551Z,31.63
2022-12-23T22:49:04.239Z,30.50
2022-12-23T22:52:06.753Z,33.17
2022-12-23T22:55:09.475Z,33.10
2022-12-23T22:58:11.925Z,30.20
2022-12-23T23:01:23.451Z,28.40
2022-12-23T23:04:26.043Z,27.77
2022-12-23T23:07:28.531Z,24.58
2022-12-23T23:10:33.304Z,26.33
2022-12-23T23:13:36.291Z,24.98
2022-12-23T23:16:39.519Z,25.35
2022-12-23T23:19:42.104Z,24.37
2022-12-23T23:22:44.677Z,28.97
2022-12-23T23:25:47.832Z,24.13
2022-12-23T23:28:50.363Z,24.50
2022-12-23T23:31:53.171Z,23.27
2022-12-23T23:34:56.306Z,23.43
2022-12-23T23:37:58.801Z,22.15
2022-12-23T23:41:01.845Z,22.17
2022-12-23T23:44:04.565Z,20.00
2022-12-23T23:47:07.055Z,19.57
2022-12-23T23:50:09.662Z,19.50
2022-12-23T23:53:13.045Z,19.40
2022-12-23T23:56:20.474Z,19.73
2022-12-23T23:59:27.457Z,19.93
